createdAt,value
2019-05-17T00:00:10.196Z,30.46
2019-05-17T00:02:48.716Z,30.58
2019-05-17T00:05:26.519Z,30.64
2019-05-17T00:08:07.390Z,30.60
2019-05-17T00:10:46.493Z,30.60
2019-05-17T00:13:23.843Z,30.62
2019-05-17T00:16:01.246Z,30.47
2019-05-17T00:18:39.998Z,30.47
2019-05-17T00:21:17.524Z,30.36
2019-05-17T00:23:57.215Z,30.38
2019-05-17T00:26:36.279Z,30.53
2019-05-17T00:29:13.984Z,30.55
2019-05-17T00:31:51.168Z,30.46
2019-05-17T00:34:28.575Z,30.46
2019-05-17T00:37:06.996Z,30.38
2019-05-17T00:39:47.477Z,30.34
2019-05-17T00:42:26.416Z,30.46
2019-05-17T00:45:06.752Z,30.59
2019-05-17T00:47:46.757Z,30.41
2019-05-17T00:50:24.472Z,31.00
2019-05-17T00:53:01.639Z,31.68
2019-05-17T00:55:39.394Z,31.45
2019-05-17T00:58:17.209Z,31.43
2019-05-17T01:00:57.226Z,31.48
2019-05-17T01:03:36.329Z,31.36
2019-05-17T01:06:13.970Z,31.51
2019-05-17T01:09:01.077Z,31.63
2019-05-17T01:11:30.524Z,31.73
2019-05-17T01:14:09.031Z,31.70
2019-05-17T01:16:47.529Z,31.73
2019-05-17T01:19:26.875Z,31.95
2019-05-17T01:22:07.307Z,32.25
2019-05-17T01:24:46.183Z,32.31
2019-05-17T01:27:26.378Z,32.68
2019-05-17T01:30:03.698Z,32.50
2019-05-17T01:32:41.775Z,32.19
2019-05-17T01:35:18.793Z,32.20
2019-05-17T01:37:56.623Z,31.98
2019-05-17T01:40:33.936Z,32.14
2019-05-17T01:43:12.030Z,32.07
2019-05-17T01:45:50.706Z,32.06
2019-05-17T01:48:28.527Z,32.18
2019-05-17T01:51:07.559Z,32.44
2019-05-17T01:53:48.476Z,32.67
2019-05-17T01:56:26.324Z,32.38
2019-05-17T01:59:06.617Z,32.43
2019-05-17T02:01:47.363Z,32.60
2019-05-17T02:04:26.798Z,32.71
2019-05-17T02:07:06.715Z,32.80
2019-05-17T02:09:43.333Z,33.17
2019-05-17T02:12:21.594Z,33.54
2019-05-17T02:14:59.935Z,33.28
2019-05-17T02:17:38.200Z,32.96
2019-05-17T02:20:17.013Z,33.02
2019-05-17T02:22:56.375Z,33.37
2019-05-17T02:25:36.940Z,33.27
2019-05-17T02:28:14.319Z,33.28
2019-05-17T02:30:53.124Z,33.40
2019-05-17T02:33:33.296Z,33.19
2019-05-17T02:36:14.256Z,33.52
2019-05-17T02:38:53.012Z,33.32
2019-05-17T02:41:28.285Z,33.34
2019-05-17T02:44:05.988Z,33.32
2019-05-17T02:46:44.751Z,33.64
2019-05-17T02:49:23.689Z,33.75
2019-05-17T02:52:03.283Z,34.06
2019-05-17T02:54:43.785Z,34.51
2019-05-17T02:57:23.316Z,34.15
2019-05-17T03:00:04.015Z,34.11
2019-05-17T03:02:43.874Z,34.40
2019-05-17T03:05:23.324Z,34.59
2019-05-17T03:08:03.665Z,34.50
2019-05-17T03:10:43.001Z,34.19
2019-05-17T03:13:18.759Z,34.13
2019-05-17T03:15:55.943Z,34.26
2019-05-17T03:18:33.862Z,34.16
2019-05-17T03:21:13.551Z,34.30
2019-05-17T03:23:53.782Z,34.31
2019-05-17T03:26:32.538Z,34.48
2019-05-17T03:29:13.371Z,34.70
2019-05-17T03:31:53.453Z,34.98
2019-05-17T03:34:28.538Z,34.69
2019-05-17T03:37:07.301Z,34.76
2019-05-17T03:39:46.063Z,34.71
2019-05-17T03:42:23.543Z,34.95
2019-05-17T03:45:02.919Z,35.14
2019-05-17T03:47:43.922Z,35.33
2019-05-17T03:50:22.755Z,35.49
2019-05-17T03:53:02.389Z,35.88
2019-05-17T03:55:39.346Z,35.72
2019-05-17T03:58:16.329Z,35.89
2019-05-17T04:00:55.208Z,35.73
2019-05-17T04:03:35.478Z,35.53
2019-05-17T04:06:13.364Z,35.47
2019-05-17T04:08:52.788Z,35.20
2019-05-17T04:11:32.882Z,35.34
2019-05-17T04:14:09.467Z,35.34
2019-05-17T04:16:48.025Z,35.59
2019-05-17T04:19:25.553Z,35.93
2019-05-17T04:22:04.112Z,35.20
2019-05-17T04:24:43.777Z,34.87
2019-05-17T04:27:22.940Z,34.57
2019-05-17T04:30:03.608Z,34.99
2019-05-17T04:32:44.090Z,35.15
2019-05-17T04:35:23.245Z,35.78
2019-05-17T04:38:03.674Z,35.67
2019-05-17T04:40:38.882Z,35.66
2019-05-17T04:43:17.501Z,35.64
2019-05-17T04:45:55.116Z,35.60
2019-05-17T04:48:33.465Z,35.46
2019-05-17T04:51:13.307Z,36.16
2019-05-17T04:53:52.983Z,36.05
2019-05-17T04:56:32.990Z,35.51
2019-05-17T04:59:13.488Z,35.74
2019-05-17T05:01:49.327Z,35.70
2019-05-17T05:04:27.717Z,35.49
2019-05-17T05:07:05.100Z,35.34
2019-05-17T05:09:43.149Z,35.23
2019-05-17T05:12:22.818Z,35.29
2019-05-17T05:14:59.866Z,35.18
2019-05-17T05:17:37.547Z,35.02
2019-05-17T05:20:15.337Z,35.08
2019-05-17T05:22:52.993Z,35.58
2019-05-17T05:25:32.323Z,35.13
2019-05-17T05:28:11.494Z,34.99
2019-05-17T05:30:48.981Z,34.85
2019-05-17T05:33:26.400Z,35.33
2019-05-17T05:36:04.355Z,35.46
2019-05-17T05:38:42.261Z,35.63
2019-05-17T05:41:22.419Z,35.54
2019-05-17T05:44:01.932Z,35.67
2019-05-17T05:46:42.005Z,35.51
2019-05-17T05:49:18.876Z,35.71
2019-05-17T05:51:56.771Z,35.82
2019-05-17T05:54:34.153Z,35.68
2019-05-17T05:57:12.888Z,35.69
2019-05-17T05:59:51.844Z,35.64
2019-05-17T06:02:32.263Z,35.57
2019-05-17T06:05:12.835Z,35.44
2019-05-17T06:07:52.100Z,35.67
2019-05-17T06:10:28.968Z,35.67
2019-05-17T06:13:07.005Z,35.44
2019-05-17T06:15:44.479Z,35.47
2019-05-17T06:18:22.834Z,35.55
2019-05-17T06:21:02.712Z,35.61
2019-05-17T06:23:42.239Z,35.75
2019-05-17T06:26:18.769Z,35.98
2019-05-17T06:28:56.369Z,36.19
2019-05-17T06:31:36.978Z,36.24
2019-05-17T06:34:13.608Z,36.37
2019-05-17T06:36:52.815Z,36.26
2019-05-17T06:39:32.922Z,36.59
2019-05-17T06:42:11.931Z,36.75
2019-05-17T06:44:48.617Z,36.79
2019-05-17T06:47:25.930Z,36.69
2019-05-17T06:50:03.677Z,36.59
2019-05-17T06:52:43.302Z,36.38
2019-05-17T06:55:20.449Z,36.46
2019-05-17T06:57:57.544Z,36.58
2019-05-17T07:00:35.588Z,36.19
2019-05-17T07:03:14.294Z,36.18
2019-05-17T07:05:53.929Z,35.99
2019-05-17T07:08:31.406Z,35.92
2019-05-17T07:11:09.876Z,35.46
2019-05-17T07:13:49.492Z,35.30
2019-05-17T07:16:26.787Z,35.12
2019-05-17T07:19:03.676Z,34.96
2019-05-17T07:21:42.007Z,35.14
2019-05-17T07:24:19.669Z,34.95
2019-05-17T07:26:59.109Z,35.16
2019-05-17T07:29:36.436Z,35.19
2019-05-17T07:32:14.619Z,34.75
2019-05-17T07:34:53.213Z,35.07
2019-05-17T07:37:30.994Z,34.83
2019-05-17T07:40:10.852Z,34.62
2019-05-17T07:42:50.249Z,35.00
2019-05-17T07:45:29.575Z,35.01
2019-05-17T07:48:06.382Z,34.65
2019-05-17T07:50:43.648Z,34.67
2019-05-17T07:53:21.617Z,34.95
2019-05-17T07:55:59.849Z,34.73
2019-05-17T07:58:40.265Z,34.95
2019-05-17T08:01:17.566Z,35.00
2019-05-17T08:03:55.562Z,34.87
2019-05-17T08:06:34.466Z,35.00
2019-05-17T08:09:13.926Z,34.71
2019-05-17T08:11:51.311Z,34.71
2019-05-17T08:14:33.402Z,34.76
2019-05-17T08:17:10.226Z,34.68
2019-05-17T08:19:49.716Z,34.89
2019-05-17T08:22:26.221Z,34.96
2019-05-17T08:25:04.433Z,35.06
2019-05-17T08:27:42.016Z,34.99
2019-05-17T08:30:20.630Z,35.17
2019-05-17T08:33:00.931Z,35.17
2019-05-17T08:35:40.043Z,35.30
2019-05-17T08:38:19.914Z,35.47
2019-05-17T08:41:00.510Z,35.30
2019-05-17T08:43:45.811Z,35.34
2019-05-17T08:46:19.888Z,35.63
2019-05-17T08:48:57.388Z,35.72
2019-05-17T08:51:35.384Z,35.41
2019-05-17T08:54:13.823Z,35.52
2019-05-17T08:56:52.838Z,35.31
2019-05-17T08:59:32.260Z,35.37
2019-05-17T09:02:10.849Z,35.09
2019-05-17T09:04:49.752Z,35.08
2019-05-17T09:07:29.549Z,35.29
2019-05-17T09:10:10.000Z,35.36
2019-05-17T09:12:50.241Z,35.30
2019-05-17T09:15:29.732Z,35.50
2019-05-17T09:18:09.837Z,35.45
2019-05-17T09:20:46.904Z,35.33
2019-05-17T09:23:26.264Z,35.21
2019-05-17T09:26:03.850Z,35.35
2019-05-17T09:28:41.975Z,34.97
2019-05-17T09:31:20.429Z,34.94
2019-05-17T09:34:00.350Z,34.93
2019-05-17T09:36:40.638Z,34.94
2019-05-17T09:39:19.968Z,34.80
2019-05-17T09:41:59.525Z,34.85
2019-05-17T09:44:36.525Z,35.05
2019-05-17T09:47:13.755Z,35.10
2019-05-17T09:49:52.231Z,35.24
2019-05-17T09:52:32.269Z,34.97
2019-05-17T09:55:10.683Z,34.93
2019-05-17T09:57:50.806Z,35.08
2019-05-17T10:00:29.697Z,35.17
2019-05-17T10:03:10.365Z,35.14
2019-05-17T10:05:49.590Z,35.18
2019-05-17T10:08:28.311Z,35.03
2019-05-17T10:11:11.294Z,35.24
2019-05-17T10:13:47.072Z,35.03
2019-05-17T10:16:24.465Z,35.03
2019-05-17T10:19:03.250Z,34.90
2019-05-17T10:21:41.316Z,34.72
2019-05-17T10:24:21.300Z,34.56
2019-05-17T10:26:59.401Z,34.56
2019-05-17T10:29:36.553Z,34.68
2019-05-17T10:32:13.919Z,34.66
2019-05-17T10:34:51.372Z,34.67
2019-05-17T10:37:30.243Z,34.43
2019-05-17T10:40:10.158Z,34.48
2019-05-17T10:42:49.863Z,34.58
2019-05-17T10:45:30.430Z,34.48
2019-05-17T10:48:09.914Z,34.38
2019-05-17T10:50:46.904Z,33.98
2019-05-17T10:53:24.656Z,33.97
2019-05-17T10:56:02.228Z,33.84
2019-05-17T10:58:40.039Z,33.86
2019-05-17T11:01:19.886Z,33.76
2019-05-17T11:03:59.477Z,33.76
2019-05-17T11:06:39.277Z,33.80
2019-05-17T11:09:16.948Z,33.78
2019-05-17T11:11:55.949Z,33.73
2019-05-17T11:14:33.547Z,33.72
2019-05-17T11:17:11.583Z,33.76
2019-05-17T11:19:49.268Z,33.67
2019-05-17T11:22:26.787Z,33.66
2019-05-17T11:25:04.322Z,33.45
2019-05-17T11:27:42.033Z,33.68
2019-05-17T11:30:20.853Z,33.47
2019-05-17T11:32:58.052Z,33.57
2019-05-17T11:35:36.275Z,33.35
2019-05-17T11:38:13.678Z,33.29
2019-05-17T11:40:51.869Z,33.36
2019-05-17T11:43:29.547Z,33.45
2019-05-17T11:46:07.778Z,33.44
2019-05-17T11:48:46.966Z,33.40
2019-05-17T11:51:26.978Z,33.14
2019-05-17T11:54:03.637Z,33.16
2019-05-17T11:56:43.016Z,33.18
2019-05-17T11:59:20.231Z,33.22
2019-05-17T12:01:57.834Z,33.17
2019-05-17T12:04:35.056Z,32.97
2019-05-17T12:07:14.722Z,32.88
2019-05-17T12:09:52.460Z,32.89
2019-05-17T12:12:30.451Z,33.03
2019-05-17T12:15:08.007Z,32.95
2019-05-17T12:17:46.673Z,32.81
2019-05-17T12:20:24.828Z,32.76
2019-05-17T12:23:02.527Z,32.91
2019-05-17T12:25:39.972Z,32.86
2019-05-17T12:28:18.102Z,32.95
2019-05-17T12:30:55.543Z,32.92
2019-05-17T12:33:33.385Z,32.72
2019-05-17T12:36:10.822Z,32.75
2019-05-17T12:38:48.243Z,32.66
2019-05-17T12:41:25.946Z,32.64
2019-05-17T12:44:04.657Z,32.67
2019-05-17T12:46:42.195Z,32.64
2019-05-17T12:49:21.578Z,32.59
2019-05-17T12:51:59.832Z,32.49
2019-05-17T12:54:38.013Z,32.44
2019-05-17T12:57:15.085Z,32.32
2019-05-17T12:59:53.558Z,32.37
2019-05-17T13:02:30.623Z,32.33
2019-05-17T13:05:09.087Z,32.41
2019-05-17T13:07:46.803Z,32.63
2019-05-17T13:10:25.231Z,32.43
2019-05-17T13:13:02.912Z,32.07
2019-05-17T13:15:40.885Z,32.12
2019-05-17T13:18:17.955Z,32.15
2019-05-17T13:20:55.900Z,32.29
2019-05-17T13:23:33.768Z,32.39
2019-05-17T13:26:11.549Z,31.95
2019-05-17T13:28:48.850Z,31.56
2019-05-17T13:31:27.527Z,31.70
2019-05-17T13:34:04.567Z,31.59
2019-05-17T13:36:41.868Z,31.38
2019-05-17T13:39:19.485Z,31.05
2019-05-17T13:41:57.343Z,31.07
2019-05-17T13:44:34.639Z,31.19
2019-05-17T13:47:12.297Z,31.26
2019-05-17T13:49:49.584Z,30.90
2019-05-17T13:52:27.468Z,30.91
2019-05-17T13:55:05.060Z,30.93
2019-05-17T13:57:42.644Z,31.03
2019-05-17T14:00:20.194Z,31.10
2019-05-17T14:02:57.926Z,31.09
2019-05-17T14:05:35.065Z,30.92
2019-05-17T14:08:12.211Z,31.02
2019-05-17T14:10:50.614Z,30.84
2019-05-17T14:13:28.212Z,30.86
2019-05-17T14:16:05.633Z,31.13
2019-05-17T14:18:43.081Z,31.05
2019-05-17T14:21:20.423Z,30.77
2019-05-17T14:23:58.118Z,30.67
2019-05-17T14:26:36.018Z,30.83
2019-05-17T14:29:13.276Z,30.82
2019-05-17T14:31:50.718Z,30.77
2019-05-17T14:34:29.157Z,30.73
2019-05-17T14:37:07.681Z,30.69
2019-05-17T14:39:45.442Z,30.94
2019-05-17T14:42:22.884Z,30.91
2019-05-17T14:45:00.581Z,30.88
2019-05-17T14:47:39.034Z,30.98
2019-05-17T14:50:16.665Z,30.87
2019-05-17T14:52:53.798Z,31.05
2019-05-17T14:55:31.474Z,31.30
2019-05-17T14:58:09.807Z,31.48
2019-05-17T15:00:48.191Z,31.54
2019-05-17T15:03:25.227Z,31.50
2019-05-17T15:06:03.762Z,31.50
2019-05-17T15:08:41.295Z,31.33
2019-05-17T15:11:19.408Z,31.26
2019-05-17T15:13:56.728Z,31.35
2019-05-17T15:16:34.104Z,31.35
2019-05-17T15:19:11.299Z,31.28
2019-05-17T15:21:49.125Z,31.43
2019-05-17T15:24:26.060Z,31.32
2019-05-17T15:27:06.175Z,31.59
2019-05-17T15:29:44.274Z,31.51
2019-05-17T15:32:21.834Z,31.42
2019-05-17T15:34:59.052Z,31.43
2019-05-17T15:37:37.236Z,31.25
2019-05-17T15:40:14.994Z,31.08
2019-05-17T15:42:52.723Z,31.20
2019-05-17T15:45:30.370Z,31.19
2019-05-17T15:48:08.501Z,31.18
2019-05-17T15:50:45.819Z,31.13
2019-05-17T15:53:22.863Z,31.22
2019-05-17T15:56:00.280Z,31.37
2019-05-17T15:58:38.494Z,31.50
2019-05-17T16:01:17.413Z,31.46
2019-05-17T16:03:54.773Z,31.44
2019-05-17T16:06:33.013Z,31.42
2019-05-17T16:09:12.876Z,31.39
2019-05-17T16:11:50.763Z,31.47
2019-05-17T16:14:28.564Z,31.34
2019-05-17T16:17:06.604Z,31.43
2019-05-17T16:19:44.965Z,31.51
2019-05-17T16:22:22.376Z,31.48
2019-05-17T16:25:00.449Z,31.36
2019-05-17T16:27:38.016Z,31.49
2019-05-17T16:30:16.080Z,31.38
2019-05-17T16:32:54.445Z,31.39
2019-05-17T16:35:33.014Z,31.38
2019-05-17T16:38:11.491Z,31.57
2019-05-17T16:40:49.046Z,31.49
2019-05-17T16:43:25.937Z,31.54
2019-05-17T16:46:03.685Z,31.60
2019-05-17T16:48:40.974Z,31.64
2019-05-17T16:51:18.669Z,31.38
2019-05-17T16:53:56.178Z,31.45
2019-05-17T16:56:33.909Z,31.51
2019-05-17T16:59:11.275Z,31.48
2019-05-17T17:01:49.069Z,31.64
2019-05-17T17:04:27.528Z,31.53
2019-05-17T17:07:04.890Z,31.29
2019-05-17T17:09:41.995Z,31.58
2019-05-17T17:12:20.580Z,31.57
2019-05-17T17:14:57.726Z,31.53
2019-05-17T17:17:35.688Z,31.47
2019-05-17T17:20:12.814Z,31.35
2019-05-17T17:22:51.515Z,31.37
2019-05-17T17:25:29.877Z,31.51
2019-05-17T17:28:07.516Z,31.41
2019-05-17T17:30:45.231Z,31.42
2019-05-17T17:33:23.509Z,31.51
2019-05-17T17:36:03.332Z,31.33
2019-05-17T17:38:41.007Z,31.15
2019-05-17T17:41:18.454Z,31.07
2019-05-17T17:43:58.936Z,30.94
2019-05-17T17:46:36.433Z,30.87
2019-05-17T17:49:14.728Z,30.88
2019-05-17T17:51:51.815Z,30.99
2019-05-17T17:54:29.741Z,31.00
2019-05-17T17:57:07.335Z,31.01
2019-05-17T17:59:45.155Z,31.37
2019-05-17T18:02:22.088Z,31.78
2019-05-17T18:05:00.669Z,31.50
2019-05-17T18:07:39.119Z,31.51
2019-05-17T18:10:27.597Z,31.42
2019-05-17T18:13:05.905Z,31.07
2019-05-17T18:15:50.414Z,31.03
2019-05-17T18:18:27.276Z,31.30
2019-05-17T18:21:05.036Z,30.98
2019-05-17T18:23:42.518Z,31.08
2019-05-17T18:26:23.274Z,31.12
2019-05-17T18:29:00.528Z,31.17
2019-05-17T18:31:39.365Z,30.92
2019-05-17T18:34:16.460Z,30.80
2019-05-17T18:36:53.878Z,30.90
2019-05-17T18:39:31.722Z,30.91
2019-05-17T18:42:09.395Z,30.88
2019-05-17T18:44:46.779Z,30.96
2019-05-17T18:47:24.517Z,31.00
2019-05-17T18:50:01.976Z,30.97
2019-05-17T18:52:40.505Z,30.97
2019-05-17T18:55:18.416Z,31.14
2019-05-17T18:57:56.468Z,31.05
2019-05-17T19:00:34.036Z,31.10
2019-05-17T19:03:11.793Z,31.13
2019-05-17T19:05:49.146Z,30.80
2019-05-17T19:08:27.159Z,30.93
2019-05-17T19:11:04.850Z,30.81
2019-05-17T19:13:42.809Z,30.78
2019-05-17T19:16:20.124Z,30.79
2019-05-17T19:18:57.756Z,30.71
2019-05-17T19:21:35.123Z,30.77
2019-05-17T19:24:12.657Z,30.81
2019-05-17T19:26:50.899Z,30.72
2019-05-17T19:29:29.174Z,30.75
2019-05-17T19:32:06.479Z,31.17
2019-05-17T19:34:43.933Z,31.30
2019-05-17T19:37:21.597Z,31.03
2019-05-17T19:39:59.666Z,30.87
2019-05-17T19:42:38.185Z,30.92
2019-05-17T19:45:15.768Z,31.07
2019-05-17T19:47:52.941Z,30.91
2019-05-17T19:50:31.929Z,30.89
2019-05-17T19:53:09.411Z,31.06
2019-05-17T19:55:46.937Z,31.16
2019-05-17T19:58:24.352Z,31.16
2019-05-17T20:01:03.012Z,31.00
2019-05-17T20:03:40.346Z,31.23
2019-05-17T20:06:17.782Z,31.40
2019-05-17T20:08:55.114Z,31.19
2019-05-17T20:11:34.676Z,31.10
2019-05-17T20:14:13.382Z,31.26
2019-05-17T20:16:50.714Z,31.39
2019-05-17T20:19:28.129Z,31.24
2019-05-17T20:22:06.386Z,30.98
2019-05-17T20:24:43.009Z,31.01
2019-05-17T20:27:20.296Z,31.16
2019-05-17T20:29:57.716Z,31.06
2019-05-17T20:32:36.229Z,30.90
2019-05-17T20:35:13.210Z,31.01
2019-05-17T20:37:50.902Z,31.45
2019-05-17T20:40:28.426Z,31.71
2019-05-17T20:43:06.282Z,31.76
2019-05-17T20:45:44.816Z,31.63
2019-05-17T20:48:21.483Z,31.42
2019-05-17T20:50:58.867Z,31.45
2019-05-17T20:53:36.669Z,31.70
2019-05-17T20:56:13.907Z,31.71
2019-05-17T20:58:51.256Z,31.55
2019-05-17T21:01:28.341Z,31.51
2019-05-17T21:04:06.529Z,31.60
2019-05-17T21:06:44.091Z,31.54
2019-05-17T21:09:21.422Z,31.43
2019-05-17T21:11:58.830Z,31.48
2019-05-17T21:14:37.995Z,31.71
2019-05-17T21:17:16.484Z,31.75
2019-05-17T21:19:54.203Z,31.72
2019-05-17T21:22:31.796Z,31.35
2019-05-17T21:25:09.579Z,31.31
2019-05-17T21:27:47.488Z,31.57
2019-05-17T21:30:25.769Z,31.75
2019-05-17T21:33:05.348Z,31.60
2019-05-17T21:35:43.336Z,31.63
2019-05-17T21:38:20.695Z,31.72
2019-05-17T21:40:57.934Z,31.75
2019-05-17T21:43:35.499Z,31.70
2019-05-17T21:46:13.331Z,31.71
2019-05-17T21:48:51.321Z,31.29
2019-05-17T21:51:29.143Z,31.29
2019-05-17T21:54:06.575Z,31.34
2019-05-17T21:56:45.317Z,31.45
2019-05-17T21:59:22.389Z,31.46
2019-05-17T22:02:00.495Z,31.64
2019-05-17T22:04:38.258Z,31.71
2019-05-17T22:07:16.077Z,31.63
2019-05-17T22:09:53.484Z,31.52
2019-05-17T22:12:31.699Z,31.58
2019-05-17T22:15:10.392Z,31.70
2019-05-17T22:17:48.277Z,31.58
2019-05-17T22:20:26.385Z,31.24
2019-05-17T22:23:04.019Z,31.43
2019-05-17T22:25:40.964Z,31.56
2019-05-17T22:28:19.057Z,31.52
2019-05-17T22:30:56.394Z,31.45
2019-05-17T22:33:34.199Z,31.55
2019-05-17T22:36:11.489Z,31.41
2019-05-17T22:38:49.778Z,31.34
2019-05-17T22:41:27.373Z,31.50
2019-05-17T22:44:04.939Z,31.45
2019-05-17T22:46:42.579Z,31.24
2019-05-17T22:49:20.685Z,31.38
2019-05-17T22:51:59.500Z,31.52
2019-05-17T22:54:36.967Z,31.63
2019-05-17T22:57:14.194Z,31.77
2019-05-17T22:59:52.643Z,31.72
2019-05-17T23:02:29.821Z,31.57
2019-05-17T23:05:06.780Z,31.63
2019-05-17T23:07:44.274Z,31.63
2019-05-17T23:10:22.304Z,31.45
2019-05-17T23:13:00.949Z,31.44
2019-05-17T23:15:56.985Z,31.59
2019-05-17T23:18:37.884Z,31.60
2019-05-17T23:21:17.096Z,31.52
2019-05-17T23:23:55.462Z,31.39
2019-05-17T23:26:33.014Z,31.55
2019-05-17T23:29:10.492Z,31.46
2019-05-17T23:31:48.149Z,31.46
2019-05-17T23:34:25.688Z,31.40
2019-05-17T23:37:03.182Z,31.49
2019-05-17T23:39:40.733Z,31.66
2019-05-17T23:42:17.967Z,31.83
2019-05-17T23:44:55.080Z,31.80
2019-05-17T23:47:32.447Z,31.71
2019-05-17T23:50:10.427Z,31.66
2019-05-17T23:52:49.048Z,31.94
2019-05-17T23:55:27.692Z,32.11
2019-05-17T23:58:05.334Z,32.34
